New Salem, North Carolina
Current Conditions -  °F | °C
As of 8:35 PM on Tuesday 25 Nov 2014 (Local Time) from KHBI Reporting Station
Light Rain Light Rain  
Wind Chill: 53°   Ceiling: 7000
Heat Index: 53°   Visibility: 10mi
Dew Point: 41°   Wind: 3mph
Humidity: 64%   Direction: 30°NNE
Pressure: 30.11"   Gusts: NA
Location:  35.8558°N, 79.7985°W
Report Text: KHBI 260135Z AUTO 03003KT 10SM -RA SCT025 BKN070 BKN090 12/05 A3011 RMK AO2 T01180051
Loading
Personal Weather Stations






























Interactive Weather Map New forecast layout! Learn more

10-Day Weather Forecast

Advertisements
Track Severe Weather on mobile